Jacksonville NAS, Florida
Current Conditions -  °F | °C
As of 10:53 AM on Friday 19 Dec 2014 (Local Time) from KNIP Reporting Station
Broken Clouds Broken Clouds  
Wind Chill: 64°   Ceiling: 25000
Heat Index: 64°   Visibility: 10mi
Dew Point: 39°   Wind: 5mph
Humidity: 40%   Direction: 100°E
Pressure: 30.15"   Gusts: NA
Location:  30.23°N, 81.68°W
Report Text: KNIP 191553Z 10004KT 10SM SCT200 BKN250 18/04 A3015 RMK AO2 SLP206 T01780039
Loading
Personal Weather Stations






























Interactive Weather Map New forecast layout! Learn more

10-Day Weather Forecast

Advertisements
Track Severe Weather on mobile